Time;durP1;ratioP1;P1;durP2;ratioP2;P2;SDS_P1;SDS_P2;PMS_P1;PMS_P2;Temp;Humidity;BMP_temperature;BMP_pressure;BME280_temperature;BME280_humidity;BME280_pressure;Samples;Min_cycle;Max_cycle;Signal;HPM_P1;HPM_P2
2023/12/30 00:00:16;;;;;;;;;;;;;;;;;;5050937;27;92290;-68
2023/12/30 00:02:41;;;;;;;;;;;;;;;;;;5053894;27;89225;-69
2023/12/30 00:05:07;;;;;;;;;;;;;;;;;;5051082;27;92417;-68
2023/12/30 00:07:32;;;;;;;;;;;;;;;;;;5052504;27;89396;-66
2023/12/30 00:09:57;;;;;;;;;;;;;;;;;;5052652;27;89252;-66
2023/12/30 00:12:22;;;;;;;;;;;;;;;;;;5052662;27;89115;-66
2023/12/30 00:14:47;;;;;;;;;;;;;;;;;;5053556;27;89187;-66
2023/12/30 00:17:13;;;;;;;;;;;;;;;;;;5053028;27;89055;-67
2023/12/30 00:19:42;;;;;;;;;;;;;;;;;;5051512;27;89508;-67
2023/12/30 00:22:07;;;;;;;;;;;;;;;;;;5052684;27;89052;-66
2023/12/30 00:24:34;;;;;;;;;;;;;;;;;;5055712;27;88991;-67
2023/12/30 00:27:00;;;;;;;;;;;;;;;;;;5052219;27;89514;-67
2023/12/30 00:29:25;;;;;;;;;;;;;;;;;;5051902;27;88949;-68
2023/12/30 00:31:50;;;;;;;;;;;;;;;;;;5052095;27;89576;-67
2023/12/30 00:34:16;;;;;;;;;;;;;;;;;;5051647;27;89716;-67
2023/12/30 00:36:42;;;;;;;;;;;;;;;;;;5051584;27;89587;-69
2023/12/30 00:39:07;;;;;;;;;;;;;;;;;;5031846;27;89939;-67
2023/12/30 00:41:33;;;;;;;;;;;;;;;;;;5031423;28;89127;-68
2023/12/30 00:43:58;;;;;;;;;;;;;;;;;;5031769;27;89009;-66
2023/12/30 00:46:23;;;;;;;;;;;;;;;;;;5034562;28;89800;-66
2023/12/30 00:48:48;;;;;;;;;;;;;;;;;;5031784;27;89131;-68
2023/12/30 00:51:14;;;;;;;;;;;;;;;;;;5031645;27;89760;-66
2023/12/30 00:53:39;;;;;;;;;;;;;;;;;;5030405;28;91801;-66
2023/12/30 00:56:04;;;;;;;;;;;;;;;;;;5040356;27;89102;-69
2023/12/30 00:58:29;;;;;;;;;;;;;;;;;;5039475;27;89600;-66
2023/12/30 01:00:55;;;;;;;;;;;;;;;;;;5030857;28;89225;-68
2023/12/30 01:03:20;;;;;;;;;;;;;;;;;;5030977;27;88954;-68
2023/12/30 01:05:45;;;;;;;;;;;;;;;;;;5031414;28;91387;-69
2023/12/30 01:08:11;;;;;;;;;;;;;;;;;;5034222;27;89099;-67
2023/12/30 01:10:36;;;;;;;;;;;;;;;;;;5029025;28;92192;-67
2023/12/30 01:13:01;;;;;;;;;;;;;;;;;;5030960;28;89922;-68
2023/12/30 01:15:27;;;;;;;;;;;;;;;;;;5015904;27;89243;-68
2023/12/30 01:17:52;;;;;;;;;;;;;;;;;;5017818;28;89479;-68
2023/12/30 01:20:17;;;;;;;;;;;;;;;;;;5031789;28;89223;-70
2023/12/30 01:22:42;;;;;;;;;;;;;;;;;;5031134;28;90045;-66
2023/12/30 01:25:08;;;;;;;;;;;;;;;;;;5031293;28;89468;-70
2023/12/30 01:27:33;;;;;;;;;;;;;;;;;;5030030;28;91505;-69
2023/12/30 01:29:58;;;;;;;;;;;;;;;;;;5034496;27;89351;-68
2023/12/30 01:32:24;;;;;;;;;;;;;;;;;;5031460;27;89213;-69
2023/12/30 01:34:49;;;;;;;;;;;;;;;;;;5031313;27;89248;-66
2023/12/30 01:37:14;;;;;;;;;;;;;;;;;;5018652;28;92111;-68
2023/12/30 01:39:40;;;;;;;;;;;;;;;;;;5029357;27;89233;-69
2023/12/30 01:42:05;;;;;;;;;;;;;;;;;;5029949;27;89629;-66
2023/12/30 01:44:30;;;;;;;;;;;;;;;;;;5030567;28;89582;-65
2023/12/30 01:46:55;;;;;;;;;;;;;;;;;;5030319;28;89825;-68
2023/12/30 01:49:21;;;;;;;;;;;;;;;;;;5030873;27;89110;-69
2023/12/30 01:51:47;;;;;;;;;;;;;;;;;;5033838;28;89300;-69
2023/12/30 01:54:12;;;;;;;;;;;;;;;;;;5031342;28;89307;-66
2023/12/30 01:56:37;;;;;;;;;;;;;;;;;;5029829;28;91507;-66
2023/12/30 01:59:03;;;;;;;;;;;;;;;;;;5030205;28;89227;-67
2023/12/30 02:01:28;;;;;;;;;;;;;;;;;;5030299;27;89395;-66
2023/12/30 02:03:53;;;;;;;;;;;;;;;;;;5030515;27;89584;-65
2023/12/30 02:06:19;;;;;;;;;;;;;;;;;;5030907;27;89189;-66
2023/12/30 02:08:45;;;;;;;;;;;;;;;;;;5029983;27;89228;-67
2023/12/30 02:11:11;;;;;;;;;;;;;;;;;;5033305;28;89539;-66
2023/12/30 02:13:36;;;;;;;;;;;;;;;;;;5029593;27;89016;-69
2023/12/30 02:16:01;;;;;;;;;;;;;;;;;;5030263;28;90258;-69
2023/12/30 02:18:26;;;;;;;;;;;;;;;;;;5028380;28;91841;-67
2023/12/30 02:20:52;;;;;;;;;;;;;;;;;;5030202;28;89431;-68
2023/12/30 02:23:17;;;;;;;;;;;;;;;;;;5030993;28;89275;-67
2023/12/30 02:25:43;;;;;;;;;;;;;;;;;;5031402;28;90512;-66
2023/12/30 02:28:09;;;;;;;;;;;;;;;;;;5046158;27;89469;-66
2023/12/30 02:30:34;;;;;;;;;;;;;;;;;;5054527;27;89348;-69
2023/12/30 02:32:59;;;;;;;;;;;;;;;;;;5048560;27;89415;-65
2023/12/30 02:35:25;;;;;;;;;;;;;;;;;;5039043;27;90081;-68
2023/12/30 02:37:50;;;;;;;;;;;;;;;;;;5053079;27;89165;-67
2023/12/30 02:40:15;;;;;;;;;;;;;;;;;;5053241;27;89205;-68
2023/12/30 02:42:40;;;;;;;;;;;;;;;;;;5054170;27;89649;-66
2023/12/30 02:45:06;;;;;;;;;;;;;;;;;;5054560;27;89217;-67
2023/12/30 02:47:31;;;;;;;;;;;;;;;;;;5054450;27;89485;-68
2023/12/30 02:49:56;;;;;;;;;;;;;;;;;;5054083;27;89661;-68
2023/12/30 02:52:22;;;;;;;;;;;;;;;;;;5053951;27;89512;-66
2023/12/30 02:54:47;;;;;;;;;;;;;;;;;;5056899;27;89307;-68
2023/12/30 02:57:12;;;;;;;;;;;;;;;;;;5034917;27;89972;-67
2023/12/30 02:59:37;;;;;;;;;;;;;;;;;;5032770;28;89581;-67
2023/12/30 03:02:03;;;;;;;;;;;;;;;;;;5033180;27;89229;-67
2023/12/30 03:04:28;;;;;;;;;;;;;;;;;;5033007;28;89331;-66
2023/12/30 03:06:53;;;;;;;;;;;;;;;;;;5033034;28;89176;-68
2023/12/30 03:09:18;;;;;;;;;;;;;;;;;;5032568;28;89013;-68
2023/12/30 03:11:44;;;;;;;;;;;;;;;;;;5032549;27;89680;-67
2023/12/30 03:14:09;;;;;;;;;;;;;;;;;;5033712;28;89415;-69
2023/12/30 03:16:34;;;;;;;;;;;;;;;;;;5036044;28;90157;-66
2023/12/30 03:19:00;;;;;;;;;;;;;;;;;;5032226;28;89058;-69
2023/12/30 03:21:25;;;;;;;;;;;;;;;;;;5033430;27;91040;-66
2023/12/30 03:23:50;;;;;;;;;;;;;;;;;;5033279;28;89488;-66
2023/12/30 03:26:16;;;;;;;;;;;;;;;;;;5034138;28;89407;-68
2023/12/30 03:28:42;;;;;;;;;;;;;;;;;;5033988;27;89300;-66
2023/12/30 03:31:08;;;;;;;;;;;;;;;;;;5033123;28;89195;-68
2023/12/30 03:33:33;;;;;;;;;;;;;;;;;;5032133;28;89225;-66
2023/12/30 03:35:58;;;;;;;;;;;;;;;;;;5032679;28;90024;-66
2023/12/30 03:38:24;;;;;;;;;;;;;;;;;;5034540;28;92054;-68
2023/12/30 03:40:49;;;;;;;;;;;;;;;;;;5032808;27;90105;-67
2023/12/30 03:43:15;;;;;;;;;;;;;;;;;;5032767;27;90341;-68
2023/12/30 03:45:40;;;;;;;;;;;;;;;;;;5032178;28;89377;-65
2023/12/30 03:48:06;;;;;;;;;;;;;;;;;;5030897;28;90499;-68
2023/12/30 03:50:31;;;;;;;;;;;;;;;;;;5031918;28;89345;-67
2023/12/30 03:52:56;;;;;;;;;;;;;;;;;;5033309;27;89058;-67
2023/12/30 03:55:22;;;;;;;;;;;;;;;;;;5033010;27;89586;-67
2023/12/30 03:57:47;;;;;;;;;;;;;;;;;;5035923;28;89293;-69
2023/12/30 04:00:12;;;;;;;;;;;;;;;;;;5032857;28;90092;-65
2023/12/30 04:02:38;;;;;;;;;;;;;;;;;;5032361;28;89200;-67
2023/12/30 04:05:03;;;;;;;;;;;;;;;;;;5032716;27;88980;-68
2023/12/30 04:07:29;;;;;;;;;;;;;;;;;;5031721;28;89385;-68
2023/12/30 04:09:54;;;;;;;;;;;;;;;;;;5032077;28;89141;-67
2023/12/30 04:12:20;;;;;;;;;;;;;;;;;;5031449;28;89585;-65
2023/12/30 04:14:46;;;;;;;;;;;;;;;;;;5031883;27;89629;-65
2023/12/30 04:17:11;;;;;;;;;;;;;;;;;;5031879;27;89174;-66
2023/12/30 04:19:36;;;;;;;;;;;;;;;;;;5035138;28;89060;-67
2023/12/30 04:22:01;;;;;;;;;;;;;;;;;;5032162;27;89573;-67
2023/12/30 04:24:27;;;;;;;;;;;;;;;;;;5031250;27;89320;-68
2023/12/30 04:26:52;;;;;;;;;;;;;;;;;;5040578;27;89329;-68
2023/12/30 04:29:17;;;;;;;;;;;;;;;;;;5050028;27;91104;-66
2023/12/30 04:31:42;;;;;;;;;;;;;;;;;;5053194;27;89215;-66
2023/12/30 04:34:07;;;;;;;;;;;;;;;;;;5052761;27;89296;-66
2023/12/30 04:36:33;;;;;;;;;;;;;;;;;;5052558;27;89217;-68
2023/12/30 04:38:58;;;;;;;;;;;;;;;;;;5052155;27;89083;-66
2023/12/30 04:41:23;;;;;;;;;;;;;;;;;;5055270;27;89286;-67
2023/12/30 04:43:48;;;;;;;;;;;;;;;;;;5052603;27;89096;-67
2023/12/30 04:46:14;;;;;;;;;;;;;;;;;;5052410;27;89521;-65
2023/12/30 04:48:39;;;;;;;;;;;;;;;;;;5051018;27;89809;-68
2023/12/30 04:51:04;;;;;;;;;;;;;;;;;;5052290;27;89376;-65
2023/12/30 04:53:29;;;;;;;;;;;;;;;;;;5051896;27;89517;-67
2023/12/30 04:55:55;;;;;;;;;;;;;;;;;;5051837;27;89225;-66
2023/12/30 04:58:20;;;;;;;;;;;;;;;;;;5051862;27;89019;-67
2023/12/30 05:00:46;;;;;;;;;;;;;;;;;;5052084;27;90373;-66
2023/12/30 05:03:11;;;;;;;;;;;;;;;;;;5053148;27;91921;-67
2023/12/30 05:05:37;;;;;;;;;;;;;;;;;;5051964;27;89504;-68
2023/12/30 05:08:03;;;;;;;;;;;;;;;;;;5052066;27;89758;-66
2023/12/30 05:10:28;;;;;;;;;;;;;;;;;;5032270;27;89046;-66
2023/12/30 05:12:53;;;;;;;;;;;;;;;;;;5011863;28;89542;-67
2023/12/30 05:15:19;;;;;;;;;;;;;;;;;;5030762;28;89612;-66
2023/12/30 05:17:44;;;;;;;;;;;;;;;;;;5030719;27;89668;-69
2023/12/30 05:20:10;;;;;;;;;;;;;;;;;;5031063;28;90187;-66
2023/12/30 05:22:35;;;;;;;;;;;;;;;;;;5031317;28;89223;-66
2023/12/30 05:25:01;;;;;;;;;;;;;;;;;;5034659;27;88955;-68
2023/12/30 05:27:26;;;;;;;;;;;;;;;;;;5031386;27;89071;-65
2023/12/30 05:29:51;;;;;;;;;;;;;;;;;;5031479;28;88914;-68
2023/12/30 05:32:16;;;;;;;;;;;;;;;;;;5031631;28;89556;-67
2023/12/30 05:34:42;;;;;;;;;;;;;;;;;;5032488;27;89063;-65
2023/12/30 05:37:07;;;;;;;;;;;;;;;;;;5032048;27;89034;-66
2023/12/30 05:39:33;;;;;;;;;;;;;;;;;;5031091;28;89867;-66
2023/12/30 05:41:58;;;;;;;;;;;;;;;;;;5031015;28;89223;-67
2023/12/30 05:44:23;;;;;;;;;;;;;;;;;;5031281;27;89067;-65
2023/12/30 05:46:50;;;;;;;;;;;;;;;;;;5034151;27;89542;-67
2023/12/30 05:49:15;;;;;;;;;;;;;;;;;;5030228;28;89370;-68
2023/12/30 05:51:42;;;;;;;;;;;;;;;;;;5030634;28;89656;-65
2023/12/30 05:54:08;;;;;;;;;;;;;;;;;;5030130;27;89622;-67
2023/12/30 05:56:33;;;;;;;;;;;;;;;;;;5043448;27;89415;-68
2023/12/30 05:58:58;;;;;;;;;;;;;;;;;;5051617;27;90088;-67
2023/12/30 06:01:24;;;;;;;;;;;;;;;;;;5053203;27;89861;-66
2023/12/30 06:03:49;;;;;;;;;;;;;;;;;;5054653;27;89298;-68
2023/12/30 06:06:14;;;;;;;;;;;;;;;;;;5057500;27;89961;-65
2023/12/30 06:08:39;;;;;;;;;;;;;;;;;;5054678;27;89580;-68
2023/12/30 06:11:05;;;;;;;;;;;;;;;;;;5053396;27;91678;-68
2023/12/30 06:13:31;;;;;;;;;;;;;;;;;;5053381;27;91892;-67
2023/12/30 06:15:57;;;;;;;;;;;;;;;;;;5027238;27;89311;-66
2023/12/30 06:18:26;;;;;;;;;;;;;;;;;;5031421;28;92417;-69
2023/12/30 06:20:52;;;;;;;;;;;;;;;;;;5031474;27;89408;-66
2023/12/30 06:23:17;;;;;;;;;;;;;;;;;;5032010;27;89054;-65
2023/12/30 06:25:43;;;;;;;;;;;;;;;;;;5056345;27;92851;-68
2023/12/30 06:28:08;;;;;;;;;;;;;;;;;;5026554;27;91948;-67
2023/12/30 06:30:33;;;;;;;;;;;;;;;;;;5033205;27;89770;-69
2023/12/30 06:33:01;;;;;;;;;;;;;;;;;;5063983;27;90698;-68
2023/12/30 06:35:26;;;;;;;;;;;;;;;;;;5037767;27;89738;-68
2023/12/30 06:37:52;;;;;;;;;;;;;;;;;;5026808;27;89551;-66
2023/12/30 06:40:17;;;;;;;;;;;;;;;;;;5058875;27;92820;-65
2023/12/30 06:42:45;;;;;;;;;;;;;;;;;;5020866;27;89320;-67
2023/12/30 06:45:10;;;;;;;;;;;;;;;;;;5023069;28;92392;-65
2023/12/30 06:47:36;;;;;;;;;;;;;;;;;;5023154;28;90084;-69
2023/12/30 06:50:01;;;;;;;;;;;;;;;;;;5023533;27;89023;-66
2023/12/30 06:52:26;;;;;;;;;;;;;;;;;;5017115;28;91947;-68
2023/12/30 06:54:53;;;;;;;;;;;;;;;;;;5014420;27;90734;-65
2023/12/30 06:57:19;;;;;;;;;;;;;;;;;;5057379;27;91067;-68
2023/12/30 06:59:44;;;;;;;;;;;;;;;;;;5026542;27;89763;-66
2023/12/30 07:02:09;;;;;;;;;;;;;;;;;;5024980;27;89960;-67
2023/12/30 07:04:35;;;;;;;;;;;;;;;;;;5022098;27;92289;-66
2023/12/30 07:07:00;;;;;;;;;;;;;;;;;;5024290;27;89745;-68
2023/12/30 07:09:25;;;;;;;;;;;;;;;;;;5021925;27;89545;-66
2023/12/30 07:11:50;;;;;;;;;;;;;;;;;;5023157;27;89472;-66
2023/12/30 07:14:15;;;;;;;;;;;;;;;;;;5030263;27;89144;-68
2023/12/30 07:16:41;;;;;;;;;;;;;;;;;;5054848;27;92280;-65
2023/12/30 07:19:06;;;;;;;;;;;;;;;;;;5021191;27;89147;-66
2023/12/30 07:21:31;;;;;;;;;;;;;;;;;;5029458;27;89488;-65
2023/12/30 07:23:56;;;;;;;;;;;;;;;;;;5027422;27;89809;-65
2023/12/30 07:26:22;;;;;;;;;;;;;;;;;;5026872;27;89950;-67
2023/12/30 07:28:47;;;;;;;;;;;;;;;;;;5025021;27;89116;-66
2023/12/30 07:31:14;;;;;;;;;;;;;;;;;;5025984;27;90077;-69
2023/12/30 07:33:40;;;;;;;;;;;;;;;;;;5055914;27;92008;-68
2023/12/30 07:36:07;;;;;;;;;;;;;;;;;;5020969;27;91727;-66
2023/12/30 07:38:33;;;;;;;;;;;;;;;;;;5027639;27;89812;-66
2023/12/30 07:40:58;;;;;;;;;;;;;;;;;;5026068;27;89140;-68
2023/12/30 07:43:24;;;;;;;;;;;;;;;;;;5018229;27;89520;-68
2023/12/30 07:45:49;;;;;;;;;;;;;;;;;;5021768;27;89410;-66
2023/12/30 07:48:14;;;;;;;;;;;;;;;;;;5019898;27;89183;-67
2023/12/30 07:50:40;;;;;;;;;;;;;;;;;;5025571;27;89541;-69
2023/12/30 07:53:05;;;;;;;;;;;;;;;;;;5020803;27;89208;-66
2023/12/30 07:55:30;;;;;;;;;;;;;;;;;;5029647;27;89175;-65
2023/12/30 07:57:55;;;;;;;;;;;;;;;;;;5016494;27;90379;-68
2023/12/30 08:00:22;;;;;;;;;;;;;;;;;;5023981;27;89212;-67
2023/12/30 08:02:47;;;;;;;;;;;;;;;;;;5027081;27;91412;-68
2023/12/30 08:05:13;;;;;;;;;;;;;;;;;;5022491;27;89634;-69
2023/12/30 08:07:38;;;;;;;;;;;;;;;;;;5022174;27;89182;-65
2023/12/30 08:10:04;;;;;;;;;;;;;;;;;;5024308;27;90153;-66
2023/12/30 08:12:29;;;;;;;;;;;;;;;;;;5024095;27;89201;-65
2023/12/30 08:14:54;;;;;;;;;;;;;;;;;;5022293;27;89150;-66
2023/12/30 08:17:20;;;;;;;;;;;;;;;;;;5029981;27;91929;-67
2023/12/30 08:19:45;;;;;;;;;;;;;;;;;;5021046;27;89761;-65
2023/12/30 08:22:11;;;;;;;;;;;;;;;;;;5021198;27;90944;-68
2023/12/30 08:24:37;;;;;;;;;;;;;;;;;;5023090;27;89861;-65
2023/12/30 08:27:02;;;;;;;;;;;;;;;;;;5021626;27;89054;-65
2023/12/30 08:29:27;;;;;;;;;;;;;;;;;;5028178;27;89595;-64
2023/12/30 08:31:53;;;;;;;;;;;;;;;;;;5025352;27;90303;-64
2023/12/30 08:34:20;;;;;;;;;;;;;;;;;;5031308;27;90958;-65
2023/12/30 08:36:46;;;;;;;;;;;;;;;;;;5025607;27;89544;-62
2023/12/30 08:39:11;;;;;;;;;;;;;;;;;;5026959;27;89283;-66
2023/12/30 08:41:37;;;;;;;;;;;;;;;;;;5027055;27;92401;-65
2023/12/30 08:44:02;;;;;;;;;;;;;;;;;;5027376;27;90282;-65
2023/12/30 08:46:27;;;;;;;;;;;;;;;;;;5017048;27;89217;-65
2023/12/30 08:48:52;;;;;;;;;;;;;;;;;;5026975;27;91114;-65
2023/12/30 08:51:18;;;;;;;;;;;;;;;;;;5020762;27;89653;-64
2023/12/30 08:53:43;;;;;;;;;;;;;;;;;;5018190;27;89178;-65
2023/12/30 08:56:09;;;;;;;;;;;;;;;;;;5028195;27;89795;-64
2023/12/30 08:58:34;;;;;;;;;;;;;;;;;;5024409;27;89368;-64
2023/12/30 09:00:59;;;;;;;;;;;;;;;;;;5021202;27;89689;-66
2023/12/30 09:03:25;;;;;;;;;;;;;;;;;;5023693;27;89038;-65
2023/12/30 09:05:50;;;;;;;;;;;;;;;;;;5018364;27;90472;-66
2023/12/30 09:08:16;;;;;;;;;;;;;;;;;;5019198;27;92389;-66
2023/12/30 09:10:41;;;;;;;;;;;;;;;;;;5022582;27;89239;-64
2023/12/30 09:13:06;;;;;;;;;;;;;;;;;;5024575;27;89106;-63
2023/12/30 09:15:33;;;;;;;;;;;;;;;;;;5016541;27;89548;-64
2023/12/30 09:17:59;;;;;;;;;;;;;;;;;;5056481;27;92042;-63
2023/12/30 09:20:24;;;;;;;;;;;;;;;;;;5027728;27;89668;-65
2023/12/30 09:22:50;;;;;;;;;;;;;;;;;;5019307;27;89570;-63
2023/12/30 09:25:15;;;;;;;;;;;;;;;;;;5022218;27;89094;-63
2023/12/30 09:27:40;;;;;;;;;;;;;;;;;;5021055;27;90530;-64
2023/12/30 09:30:06;;;;;;;;;;;;;;;;;;5018947;27;89201;-63
2023/12/30 09:32:31;;;;;;;;;;;;;;;;;;5016033;27;89967;-64
2023/12/30 09:34:57;;;;;;;;;;;;;;;;;;5036657;27;91351;-65
2023/12/30 09:37:22;;;;;;;;;;;;;;;;;;5026607;27;90781;-64
2023/12/30 09:39:47;;;;;;;;;;;;;;;;;;5024856;27;89116;-64
2023/12/30 09:42:12;;;;;;;;;;;;;;;;;;5028865;27;89880;-66
2023/12/30 09:44:39;;;;;;;;;;;;;;;;;;5053829;27;90718;-65
2023/12/30 09:47:10;;;;;;;;;;;;;;;;;;5025138;27;89715;-64
2023/12/30 09:49:35;;;;;;;;;;;;;;;;;;5022440;27;89155;-65
2023/12/30 09:52:03;;;;;;;;;;;;;;;;;;5023835;27;89239;-65
2023/12/30 09:54:28;;;;;;;;;;;;;;;;;;5022725;27;89945;-63
2023/12/30 09:56:54;;;;;;;;;;;;;;;;;;5028014;27;92341;-64
2023/12/30 09:59:19;;;;;;;;;;;;;;;;;;5027768;27;89624;-64
2023/12/30 10:01:44;;;;;;;;;;;;;;;;;;5030173;27;89632;-63
2023/12/30 10:04:10;;;;;;;;;;;;;;;;;;5026351;28;89241;-63
2023/12/30 10:06:37;;;;;;;;;;;;;;;;;;5035529;27;90121;-64
2023/12/30 10:09:02;;;;;;;;;;;;;;;;;;5033142;27;89770;-64
2023/12/30 10:11:27;;;;;;;;;;;;;;;;;;5031274;27;89475;-64
2023/12/30 10:13:54;;;;;;;;;;;;;;;;;;5030656;27;89080;-64
2023/12/30 10:16:19;;;;;;;;;;;;;;;;;;5032382;28;89122;-64
2023/12/30 10:18:44;;;;;;;;;;;;;;;;;;5029971;28;90023;-65
2023/12/30 10:21:10;;;;;;;;;;;;;;;;;;5025771;28;91435;-65
2023/12/30 10:23:35;;;;;;;;;;;;;;;;;;5026774;28;90023;-64
2023/12/30 10:26:02;;;;;;;;;;;;;;;;;;5033061;28;90123;-64
2023/12/30 10:28:27;;;;;;;;;;;;;;;;;;5027316;27;90552;-64
2023/12/30 10:30:59;;;;;;;;;;;;;;;;;;5030674;27;91369;-65
2023/12/30 10:33:24;;;;;;;;;;;;;;;;;;5032051;27;91396;-64
2023/12/30 10:35:49;;;;;;;;;;;;;;;;;;5026176;27;89326;-64
2023/12/30 10:38:17;;;;;;;;;;;;;;;;;;5030503;28;89469;-64
2023/12/30 10:40:43;;;;;;;;;;;;;;;;;;5031264;28;89632;-64
2023/12/30 10:43:08;;;;;;;;;;;;;;;;;;5023842;27;91326;-65
2023/12/30 10:45:33;;;;;;;;;;;;;;;;;;5033626;27;91739;-64
2023/12/30 10:47:59;;;;;;;;;;;;;;;;;;5029551;28;89300;-65
2023/12/30 10:50:26;;;;;;;;;;;;;;;;;;5031909;27;89022;-64
2023/12/30 10:52:59;;;;;;;;;;;;;;;;;;5023114;28;92216;-65
2023/12/30 10:55:25;;;;;;;;;;;;;;;;;;5026078;27;92076;-64
2023/12/30 10:58:00;;;;;;;;;;;;;;;;;;5032680;27;90203;-63
2023/12/30 11:00:27;;;;;;;;;;;;;;;;;;5031540;27;89435;-65
2023/12/30 11:02:52;;;;;;;;;;;;;;;;;;5024757;28;91742;-64
2023/12/30 11:05:23;;;;;;;;;;;;;;;;;;5023570;28;89437;-64
2023/12/30 11:07:48;;;;;;;;;;;;;;;;;;5025502;28;89563;-65
2023/12/30 11:10:17;;;;;;;;;;;;;;;;;;5027049;28;89170;-63
2023/12/30 11:12:42;;;;;;;;;;;;;;;;;;5033867;28;89616;-64
2023/12/30 11:15:28;;;;;;;;;;;;;;;;;;5027541;28;89332;-64
2023/12/30 11:17:54;;;;;;;;;;;;;;;;;;5028291;27;89083;-63
2023/12/30 11:20:25;;;;;;;;;;;;;;;;;;5026058;27;89238;-64
2023/12/30 11:22:51;;;;;;;;;;;;;;;;;;5023934;28;89203;-64
2023/12/30 11:25:17;;;;;;;;;;;;;;;;;;5035376;27;89096;-65
2023/12/30 11:27:46;;;;;;;;;;;;;;;;;;5031991;27;89606;-65
2023/12/30 11:30:23;;;;;;;;;;;;;;;;;;5025309;27;89053;-64
2023/12/30 11:32:49;;;;;;;;;;;;;;;;;;5022891;28;89584;-64
2023/12/30 11:35:14;;;;;;;;;;;;;;;;;;5019869;28;90237;-71
2023/12/30 11:37:43;;;;;;;;;;;;;;;;;;5021424;28;89128;-64
2023/12/30 11:40:11;;;;;;;;;;;;;;;;;;5020246;28;90710;-64
2023/12/30 11:42:36;;;;;;;;;;;;;;;;;;5022233;28;91066;-63
2023/12/30 11:45:02;;;;;;;;;;;;;;;;;;5024947;28;90191;-64
2023/12/30 11:47:30;;;;;;;;;;;;;;;;;;5021538;27;90795;-63
2023/12/30 11:50:02;;;;;;;;;;;;;;;;;;5021419;28;89195;-63
2023/12/30 11:52:28;;;;;;;;;;;;;;;;;;5024410;28;89099;-64
2023/12/30 11:54:53;;;;;;;;;;;;;;;;;;5018758;28;89185;-64
2023/12/30 11:57:18;;;;;;;;;;;;;;;;;;5032174;27;89061;-64
2023/12/30 11:59:44;;;;;;;;;;;;;;;;;;5025386;28;89662;-64
2023/12/30 12:02:11;;;;;;;;;;;;;;;;;;5022627;27;89203;-64
2023/12/30 12:04:36;;;;;;;;;;;;;;;;;;5025217;28;89152;-64
2023/12/30 12:07:02;;;;;;;;;;;;;;;;;;5022896;28;89578;-64
2023/12/30 12:09:27;;;;;;;;;;;;;;;;;;5021783;28;89253;-64
2023/12/30 12:11:53;;;;;;;;;;;;;;;;;;5023762;28;89032;-64
2023/12/30 12:14:18;;;;;;;;;;;;;;;;;;5016389;27;89849;-64
2023/12/30 12:16:44;;;;;;;;;;;;;;;;;;5017261;28;89364;-64
2023/12/30 12:19:10;;;;;;;;;;;;;;;;;;5026079;27;89572;-64
2023/12/30 12:21:36;;;;;;;;;;;;;;;;;;5023199;28;89697;-64
2023/12/30 12:24:02;;;;;;;;;;;;;;;;;;5018960;28;89381;-64
2023/12/30 12:26:28;;;;;;;;;;;;;;;;;;5018991;28;92305;-65
2023/12/30 12:28:54;;;;;;;;;;;;;;;;;;5022308;28;92576;-64
2023/12/30 12:31:19;;;;;;;;;;;;;;;;;;5018644;28;89606;-64
2023/12/30 12:33:44;;;;;;;;;;;;;;;;;;5032467;27;90263;-64
2023/12/30 12:36:09;;;;;;;;;;;;;;;;;;5031856;27;89085;-64
2023/12/30 12:38:35;;;;;;;;;;;;;;;;;;5017123;28;89628;-63
2023/12/30 12:41:00;;;;;;;;;;;;;;;;;;5030012;28;89241;-64
2023/12/30 12:43:25;;;;;;;;;;;;;;;;;;5024839;27;89211;-64
2023/12/30 12:45:50;;;;;;;;;;;;;;;;;;5013417;28;89382;-64
2023/12/30 12:48:15;;;;;;;;;;;;;;;;;;5021681;28;89718;-64
2023/12/30 12:50:41;;;;;;;;;;;;;;;;;;5019622;28;89045;-64
2023/12/30 12:53:06;;;;;;;;;;;;;;;;;;5021180;27;89572;-64
2023/12/30 12:55:31;;;;;;;;;;;;;;;;;;5031917;27;91266;-64
2023/12/30 12:57:56;;;;;;;;;;;;;;;;;;5022176;28;90144;-64
2023/12/30 13:00:22;;;;;;;;;;;;;;;;;;5023598;28;89475;-64
2023/12/30 13:02:47;;;;;;;;;;;;;;;;;;5021152;28;89373;-64
2023/12/30 13:05:16;;;;;;;;;;;;;;;;;;5023115;28;89769;-64
2023/12/30 13:07:43;;;;;;;;;;;;;;;;;;5011815;28;88986;-64
2023/12/30 13:12:46;;;;;;;;;;;;;;;;;;5021551;27;89666;-65
2023/12/30 13:15:15;;;;;;;;;;;;;;;;;;5017324;28;89271;-63
2023/12/30 13:17:47;;;;;;;;;;;;;;;;;;5021808;28;89759;-63
2023/12/30 13:20:16;;;;;;;;;;;;;;;;;;5026192;28;91133;-64
2023/12/30 13:22:41;;;;;;;;;;;;;;;;;;5027322;27;90670;-65
2023/12/30 13:25:09;;;;;;;;;;;;;;;;;;5023100;28;89478;-65
2023/12/30 13:27:35;;;;;;;;;;;;;;;;;;5028234;27;92648;-63
2023/12/30 13:30:00;;;;;;;;;;;;;;;;;;5029236;27;89065;-65
2023/12/30 13:32:27;;;;;;;;;;;;;;;;;;5029305;28;89486;-64
2023/12/30 13:34:55;;;;;;;;;;;;;;;;;;5028515;27;91116;-64
2023/12/30 13:37:22;;;;;;;;;;;;;;;;;;5025736;27;89252;-65
2023/12/30 13:39:47;;;;;;;;;;;;;;;;;;5032108;27;89532;-65
2023/12/30 13:42:14;;;;;;;;;;;;;;;;;;5030714;28;89453;-65
2023/12/30 13:44:44;;;;;;;;;;;;;;;;;;5030084;28;89494;-64
2023/12/30 13:50:13;;;;;;;;;;;;;;;;;;5022335;28;89026;-64
2023/12/30 13:52:38;;;;;;;;;;;;;;;;;;5021084;28;89606;-64
2023/12/30 13:55:06;;;;;;;;;;;;;;;;;;5032720;27;89382;-64
2023/12/30 13:57:32;;;;;;;;;;;;;;;;;;5022204;28;89062;-65
2023/12/30 13:59:58;;;;;;;;;;;;;;;;;;5009995;28;89778;-64
2023/12/30 14:02:24;;;;;;;;;;;;;;;;;;5018771;28;89156;-65
2023/12/30 14:04:54;;;;;;;;;;;;;;;;;;5015917;28;89816;-64
2023/12/30 14:07:26;;;;;;;;;;;;;;;;;;5024525;28;91861;-64
2023/12/30 14:09:54;;;;;;;;;;;;;;;;;;5022362;28;88995;-64
2023/12/30 14:12:21;;;;;;;;;;;;;;;;;;5022559;27;91946;-64
2023/12/30 14:14:53;;;;;;;;;;;;;;;;;;5019760;28;91824;-64
2023/12/30 14:17:18;;;;;;;;;;;;;;;;;;5027336;28;89094;-64
2023/12/30 14:19:44;;;;;;;;;;;;;;;;;;5026287;27;89577;-64
2023/12/30 14:22:09;;;;;;;;;;;;;;;;;;5021842;28;89181;-64
2023/12/30 14:24:34;;;;;;;;;;;;;;;;;;5032288;27;89428;-64
2023/12/30 14:27:00;;;;;;;;;;;;;;;;;;5023979;28;89150;-65
2023/12/30 14:29:25;;;;;;;;;;;;;;;;;;5031130;27;89682;-64
2023/12/30 14:31:51;;;;;;;;;;;;;;;;;;5030516;28;89519;-64
2023/12/30 14:34:16;;;;;;;;;;;;;;;;;;5023123;27;89066;-64
2023/12/30 14:36:41;;;;;;;;;;;;;;;;;;5038620;27;89039;-64
2023/12/30 14:39:08;;;;;;;;;;;;;;;;;;5019887;28;89590;-64
2023/12/30 14:41:33;;;;;;;;;;;;;;;;;;5026314;28;89156;-64
2023/12/30 14:44:00;;;;;;;;;;;;;;;;;;5029209;28;89287;-65
2023/12/30 14:46:25;;;;;;;;;;;;;;;;;;5027383;28;90265;-64
2023/12/30 14:48:50;;;;;;;;;;;;;;;;;;5025530;27;89264;-65
2023/12/30 14:51:16;;;;;;;;;;;;;;;;;;5021415;28;89693;-64
2023/12/30 14:53:42;;;;;;;;;;;;;;;;;;5024632;28;89621;-64
2023/12/30 14:56:13;;;;;;;;;;;;;;;;;;5021781;27;89399;-64
2023/12/30 14:58:38;;;;;;;;;;;;;;;;;;5022025;28;89414;-63
2023/12/30 15:01:05;;;;;;;;;;;;;;;;;;5025296;28;91984;-63
2023/12/30 15:03:30;;;;;;;;;;;;;;;;;;5018534;27;89433;-63
2023/12/30 15:05:56;;;;;;;;;;;;;;;;;;5030780;28;89162;-64
2023/12/30 15:08:21;;;;;;;;;;;;;;;;;;5021702;28;89149;-62
2023/12/30 15:10:46;;;;;;;;;;;;;;;;;;5028357;27;89224;-63
2023/12/30 15:13:12;;;;;;;;;;;;;;;;;;5026766;28;89364;-64
2023/12/30 15:15:38;;;;;;;;;;;;;;;;;;5029435;28;89380;-63
2023/12/30 15:18:03;;;;;;;;;;;;;;;;;;5033692;27;92508;-63
2023/12/30 15:20:29;;;;;;;;;;;;;;;;;;5020998;28;90990;-64
2023/12/30 15:22:57;;;;;;;;;;;;;;;;;;5023821;28;89027;-63
2023/12/30 15:25:23;;;;;;;;;;;;;;;;;;5025684;27;89572;-64
2023/12/30 15:27:53;;;;;;;;;;;;;;;;;;5033869;28;89134;-63
2023/12/30 15:30:18;;;;;;;;;;;;;;;;;;5025871;28;90048;-63
2023/12/30 15:32:44;;;;;;;;;;;;;;;;;;5021500;28;89189;-62
2023/12/30 15:35:10;;;;;;;;;;;;;;;;;;5024369;27;89553;-63
2023/12/30 15:37:35;;;;;;;;;;;;;;;;;;5038077;27;89476;-63
2023/12/30 15:40:00;;;;;;;;;;;;;;;;;;5026219;28;89559;-63
2023/12/30 15:42:26;;;;;;;;;;;;;;;;;;5019605;28;89994;-63
2023/12/30 15:44:51;;;;;;;;;;;;;;;;;;5019635;28;90306;-63
2023/12/30 15:47:17;;;;;;;;;;;;;;;;;;5023134;28;89208;-63
2023/12/30 15:49:42;;;;;;;;;;;;;;;;;;5023585;28;89686;-64
2023/12/30 15:52:09;;;;;;;;;;;;;;;;;;5025441;28;89224;-64
2023/12/30 15:54:35;;;;;;;;;;;;;;;;;;5012806;28;89561;-63
2023/12/30 15:57:00;;;;;;;;;;;;;;;;;;5027497;27;89967;-64
2023/12/30 15:59:26;;;;;;;;;;;;;;;;;;5021428;28;89524;-63
2023/12/30 16:01:51;;;;;;;;;;;;;;;;;;5020258;28;89639;-63
2023/12/30 16:04:17;;;;;;;;;;;;;;;;;;5021533;28;89089;-65
2023/12/30 16:06:42;;;;;;;;;;;;;;;;;;5023841;27;90237;-65
2023/12/30 16:09:07;;;;;;;;;;;;;;;;;;5027353;27;89063;-66
2023/12/30 16:11:33;;;;;;;;;;;;;;;;;;5046432;27;92456;-65
2023/12/30 16:13:59;;;;;;;;;;;;;;;;;;5031577;27;89313;-69
2023/12/30 16:16:24;;;;;;;;;;;;;;;;;;5029482;27;89748;-65
2023/12/30 16:18:49;;;;;;;;;;;;;;;;;;5027621;27;89319;-65
2023/12/30 16:21:15;;;;;;;;;;;;;;;;;;5030774;27;89509;-67
2023/12/30 16:23:41;;;;;;;;;;;;;;;;;;5030837;27;90811;-69
2023/12/30 16:26:10;;;;;;;;;;;;;;;;;;5021629;27;89076;-65
2023/12/30 16:28:36;;;;;;;;;;;;;;;;;;5027528;28;89598;-65
2023/12/30 16:31:01;;;;;;;;;;;;;;;;;;5025767;27;89638;-67
2023/12/30 16:33:28;;;;;;;;;;;;;;;;;;5011952;27;89576;-70
2023/12/30 16:35:53;;;;;;;;;;;;;;;;;;5026979;27;89561;-73
2023/12/30 16:38:18;;;;;;;;;;;;;;;;;;5029472;27;89858;-73
2023/12/30 16:40:43;;;;;;;;;;;;;;;;;;5024059;27;89358;-71